WI45 weather

Langlade Memorial Hospital Heliport
Antigo, Wisconsin, United States

Public forecast

Using degrees Fahrenheit for public forecast. Weather courtesy of forecast.io.

METAR (pilot weather report)

Closest report is Langlade County Airport, 1.4 nm (2.7 km) ENE. Retrieved 2019/08/25 10:35 UTC (0 seconds ago):

KAIG 251035Z AUTO 00000KT 10SM OVC041 09/09 A3021 RMK AO2 T00900090

TAF (pilot weather forecast)

Closest forecast is Wausau Downtown Airport, 24.4 nm (45.2 km) WSW. Retrieved 2019/08/25 06:22 UTC (4 hours ago):

TAF KAUW 250520Z 2506/2606 12003KT P6SM SCT200 FM251500 14009KT P6SM SCT030 SCT150 FM251800 14010KT P6SM BKN035 FM260100 13007KT P6SM SCT035 BKN100